sensor_id;sensor_type;location;lat;lon;timestamp;P1;P2;P0
45312;PMS7003;68267;51.540;5.854;2023-08-24T00:00:32;6.73;9.38;8.73
45312;PMS7003;68267;51.540;5.854;2023-08-24T00:13:51;6.73;9.38;9.06
45312;PMS7003;68267;51.540;5.854;2023-08-24T00:27:11;9.61;10.36;9.82
45312;PMS7003;68267;51.540;5.854;2023-08-24T00:40:31;9.61;12.0;11.24
45312;PMS7003;68267;51.540;5.854;2023-08-24T00:53:50;8.77;10.58;10.26
45312;PMS7003;68267;51.540;5.854;2023-08-24T01:07:10;9.01;11.45;11.24
45312;PMS7003;68267;51.540;5.854;2023-08-24T01:20:29;10.93;11.56;10.47
45312;PMS7003;68267;51.540;5.854;2023-08-24T01:33:49;8.17;10.69;10.47
45312;PMS7003;68267;51.540;5.854;2023-08-24T01:47:09;8.41;10.91;10.58
45312;PMS7003;68267;51.540;5.854;2023-08-24T02:00:29;10.69;11.56;11.24
45312;PMS7003;68267;51.540;5.854;2023-08-24T02:13:48;9.85;12.22;11.89
45312;PMS7003;68267;51.540;5.854;2023-08-24T02:27:08;10.09;12.44;11.78
45312;PMS7003;68267;51.540;5.854;2023-08-24T02:40:28;9.61;12.0;11.67
45312;PMS7003;68267;51.540;5.854;2023-08-24T02:53:47;9.97;12.33;12.0
45312;PMS7003;68267;51.540;5.854;2023-08-24T03:07:07;13.69;15.71;14.72
45312;PMS7003;68267;51.540;5.854;2023-08-24T03:20:27;11.89;14.07;13.09
45312;PMS7003;68267;51.540;5.854;2023-08-24T03:33:47;11.77;13.96;12.98
45312;PMS7003;68267;51.540;5.854;2023-08-24T03:47:07;17.65;19.3;18.21
45312;PMS7003;68267;51.540;5.854;2023-08-24T04:00:26;21.61;22.9;21.7
45312;PMS7003;68267;51.540;5.854;2023-08-24T04:13:46;29.65;30.2;28.68
45312;PMS7003;68267;51.540;5.854;2023-08-24T04:27:06;31.81;32.16;30.75
45312;PMS7003;68267;51.540;5.854;2023-08-24T04:40:26;30.37;30.86;29.33
45312;PMS7003;68267;51.540;5.854;2023-08-24T04:53:45;24.97;25.41;24.1
45312;PMS7003;68267;51.540;5.854;2023-08-24T05:07:05;21.49;22.79;21.81
45312;PMS7003;68267;51.540;5.854;2023-08-24T05:20:25;23.41;24.53;22.25
45312;PMS7003;68267;51.540;5.854;2023-08-24T05:33:45;21.61;22.9;22.03
45312;PMS7003;68267;51.540;5.854;2023-08-24T05:47:05;21.25;22.57;21.92
45312;PMS7003;68267;51.540;5.854;2023-08-24T06:00:24;24.25;24.1;23.12
45312;PMS7003;68267;51.540;5.854;2023-08-24T06:13:44;23.89;24.97;24.1
45312;PMS7003;68267;51.540;5.854;2023-08-24T06:27:04;25.57;25.95;25.19
45312;PMS7003;68267;51.540;5.854;2023-08-24T06:40:24;23.53;24.64;23.99
45312;PMS7003;68267;51.540;5.854;2023-08-24T07:07:03;18.25;19.85;18.87
45312;PMS7003;68267;51.540;5.854;2023-08-24T07:20:23;15.25;17.12;16.25
45312;PMS7003;68267;51.540;5.854;2023-08-24T07:33:42;12.37;14.51;14.18
45312;PMS7003;68267;51.540;5.854;2023-08-24T07:47:02;13.21;13.96;13.53
45312;PMS7003;68267;51.540;5.854;2023-08-24T08:00:22;11.29;13.53;12.76
45312;PMS7003;68267;51.540;5.854;2023-08-24T08:13:42;11.65;12.33;11.45
45312;PMS7003;68267;51.540;5.854;2023-08-24T08:27:01;9.25;11.67;10.91
45312;PMS7003;68267;51.540;5.854;2023-08-24T08:40:21;7.21;9.82;9.27
45312;PMS7003;68267;51.540;5.854;2023-08-24T08:53:41;4.69;7.53;7.2
45312;PMS7003;68267;51.540;5.854;2023-08-24T09:07:00;4.45;7.31;6.66
45312;PMS7003;68267;51.540;5.854;2023-08-24T09:20:20;4.09;6.99;6.33
45312;PMS7003;68267;51.540;5.854;2023-08-24T09:33:40;3.97;6.88;5.68
45312;PMS7003;68267;51.540;5.854;2023-08-24T09:47:00;6.13;6.11;4.91
45312;PMS7003;68267;51.540;5.854;2023-08-24T10:00:19;2.04;5.13;4.7
45312;PMS7003;68267;51.540;5.854;2023-08-24T10:13:39;2.64;5.68;5.13
45312;PMS7003;68267;51.540;5.854;2023-08-24T10:26:59;4.21;7.09;6.11
45312;PMS7003;68267;51.540;5.854;2023-08-24T10:40:19;4.45;7.31;6.99
45312;PMS7003;68267;51.540;5.854;2023-08-24T10:53:38;4.81;7.64;6.99
45312;PMS7003;68267;51.540;5.854;2023-08-24T11:06:58;5.29;8.08;6.99
45312;PMS7003;68267;51.540;5.854;2023-08-24T11:20:18;6.01;7.97;6.99
45312;PMS7003;68267;51.540;5.854;2023-08-24T11:33:38;6.73;9.38;8.51
45312;PMS7003;68267;51.540;5.854;2023-08-24T11:46:57;4.69;7.53;6.77
45312;PMS7003;68267;51.540;5.854;2023-08-24T12:00:17;5.29;8.08;7.31
45312;PMS7003;68267;51.540;5.854;2023-08-24T12:13:37;7.81;8.95;8.73
45312;PMS7003;68267;51.540;5.854;2023-08-24T12:26:57;9.01;9.49;8.95
45312;PMS7003;68267;51.540;5.854;2023-08-24T12:40:16;9.73;10.04;9.38
45312;PMS7003;68267;51.540;5.854;2023-08-24T12:53:36;8.89;10.8;9.82
45312;PMS7003;68267;51.540;5.854;2023-08-24T13:06:56;6.49;9.17;8.18
45312;PMS7003;68267;51.540;5.854;2023-08-24T13:20:15;5.89;8.62;7.86
45312;PMS7003;68267;51.540;5.854;2023-08-24T13:33:35;5.53;8.29;7.75
45312;PMS7003;68267;51.540;5.854;2023-08-24T13:46:55;3.6;6.55;5.79
45312;PMS7003;68267;51.540;5.854;2023-08-24T14:00:14;4.81;7.64;6.88
45312;PMS7003;68267;51.540;5.854;2023-08-24T14:13:34;4.93;7.75;6.77
45312;PMS7003;68267;51.540;5.854;2023-08-24T14:26:54;8.17;7.75;7.09
45312;PMS7003;68267;51.540;5.854;2023-08-24T14:40:13;5.17;7.97;7.42
45312;PMS7003;68267;51.540;5.854;2023-08-24T14:53:33;6.01;8.73;8.62
45312;PMS7003;68267;51.540;5.854;2023-08-24T15:06:53;4.21;7.09;6.66
45312;PMS7003;68267;51.540;5.854;2023-08-24T15:20:12;5.17;7.97;6.99
45312;PMS7003;68267;51.540;5.854;2023-08-24T15:33:32;5.05;7.86;6.66
45312;PMS7003;68267;51.540;5.854;2023-08-24T15:46:52;2.52;5.57;5.13
45312;PMS7003;68267;51.540;5.854;2023-08-24T16:00:11;5.41;6.66;6.0
45312;PMS7003;68267;51.540;5.854;2023-08-24T16:13:31;1.32;4.48;3.93
45312;PMS7003;68267;51.540;5.854;2023-08-24T16:26:51;0.36;3.61;3.28
45312;PMS7003;68267;51.540;5.854;2023-08-24T16:40:11;0.01;2.95;2.73
45312;PMS7003;68267;51.540;5.854;2023-08-24T16:53:30;6.85;3.28;2.84
45312;PMS7003;68267;51.540;5.854;2023-08-24T17:06:50;0.01;2.84;2.19
45312;PMS7003;68267;51.540;5.854;2023-08-24T17:20:10;9.01;3.17;2.52
45312;PMS7003;68267;51.540;5.854;2023-08-24T17:33:30;0.01;3.06;2.52
45312;PMS7003;68267;51.540;5.854;2023-08-24T17:46:49;0.01;2.84;2.3
45312;PMS7003;68267;51.540;5.854;2023-08-24T18:00:09;0.72;3.93;3.82
45312;PMS7003;68267;51.540;5.854;2023-08-24T18:13:29;4.21;3.39;2.95
45312;PMS7003;68267;51.540;5.854;2023-08-24T18:26:48;0.12;3.39;2.19
45312;PMS7003;68267;51.540;5.854;2023-08-24T18:40:08;0.0;3.28;2.73
45312;PMS7003;68267;51.540;5.854;2023-08-24T18:53:27;1.2;4.37;3.61
45312;PMS7003;68267;51.540;5.854;2023-08-24T19:06:47;7.57;8.51;8.29
45312;PMS7003;68267;51.540;5.854;2023-08-24T19:20:07;5.89;6.44;5.9
45312;PMS7003;68267;51.540;5.854;2023-08-24T19:33:27;3.24;6.22;5.68
45312;PMS7003;68267;51.540;5.854;2023-08-24T19:46:46;4.21;7.09;6.88
45312;PMS7003;68267;51.540;5.854;2023-08-24T20:00:06;3.85;6.77;6.33
45312;PMS7003;68267;51.540;5.854;2023-08-24T20:13:26;5.05;7.86;7.09
45312;PMS7003;68267;51.540;5.854;2023-08-24T20:26:45;30.85;31.29;30.2
45312;PMS7003;68267;51.540;5.854;2023-08-24T20:40:05;12.01;14.18;13.74
45312;PMS7003;68267;51.540;5.854;2023-08-24T20:53:25;12.97;14.51;13.74
45312;PMS7003;68267;51.540;5.854;2023-08-24T21:06:44;14.41;16.36;15.27
45312;PMS7003;68267;51.540;5.854;2023-08-24T21:20:04;11.05;13.31;12.65
45312;PMS7003;68267;51.540;5.854;2023-08-24T21:33:24;11.77;13.96;13.63
45312;PMS7003;68267;51.540;5.854;2023-08-24T21:46:44;10.69;12.98;12.87
45312;PMS7003;68267;51.540;5.854;2023-08-24T22:00:03;12.25;14.4;13.85
45312;PMS7003;68267;51.540;5.854;2023-08-24T22:13:23;15.73;15.71;14.62
45312;PMS7003;68267;51.540;5.854;2023-08-24T22:26:43;12.13;14.29;13.53
45312;PMS7003;68267;51.540;5.854;2023-08-24T22:40:03;13.69;15.71;14.94
45312;PMS7003;68267;51.540;5.854;2023-08-24T22:53:23;13.81;14.62;14.4
45312;PMS7003;68267;51.540;5.854;2023-08-24T23:06:42;12.85;14.94;14.51
45312;PMS7003;68267;51.540;5.854;2023-08-24T23:20:02;14.29;15.6;14.62
45312;PMS7003;68267;51.540;5.854;2023-08-24T23:33:21;14.77;16.69;16.14
45312;PMS7003;68267;51.540;5.854;2023-08-24T23:46:41;13.93;14.72;14.4
